Time;durP1;ratioP1;P1;durP2;ratioP2;P2;SDS_P1;SDS_P2;PMS_P1;PMS_P2;Temp;Humidity;BMP_temperature;BMP_pressure;BME280_temperature;BME280_humidity;BME280_pressure;Samples;Min_cycle;Max_cycle;Signal;HPM_P1;HPM_P2
2024/01/25 00:01:30;;;;;;;20.93;4.40;;;;;;;;;;5056173;28;20613;-81
2024/01/25 00:03:56;;;;;;;19.03;3.90;;;;;;;;;;5034667;28;20196;-82
2024/01/25 00:06:22;;;;;;;16.83;4.43;;;;;;;;;;5021701;28;20208;-82
2024/01/25 00:08:49;;;;;;;19.67;4.10;;;;;;;;;;5027862;28;20205;-83
2024/01/25 00:11:15;;;;;;;15.70;4.03;;;;;;;;;;5028878;28;21578;-82
2024/01/25 00:13:41;;;;;;;21.73;4.43;;;;;;;;;;5042335;28;20229;-82
2024/01/25 00:16:07;;;;;;;17.53;4.23;;;;;;;;;;5029039;28;20197;-82
2024/01/25 00:18:34;;;;;;;18.67;4.07;;;;;;;;;;5009961;28;20201;-82
2024/01/25 00:21:00;;;;;;;20.03;4.43;;;;;;;;;;5018083;28;20208;-82
2024/01/25 00:23:27;;;;;;;18.07;4.10;;;;;;;;;;5013511;28;20230;-83
2024/01/25 00:25:53;;;;;;;20.33;3.80;;;;;;;;;;5065464;28;20213;-82
2024/01/25 00:28:19;;;;;;;18.77;4.33;;;;;;;;;;5059047;28;20395;-82
2024/01/25 00:30:45;;;;;;;14.83;4.10;;;;;;;;;;5030403;28;20180;-82
2024/01/25 00:33:12;;;;;;;17.27;4.07;;;;;;;;;;5044402;28;20185;-82
2024/01/25 00:35:38;;;;;;;14.47;3.67;;;;;;;;;;4999640;28;20347;-82
2024/01/25 00:38:04;;;;;;;21.57;4.27;;;;;;;;;;5014339;28;20192;-82
2024/01/25 00:40:30;;;;;;;19.63;4.50;;;;;;;;;;5070136;28;20218;-82
2024/01/25 00:42:57;;;;;;;17.87;4.03;;;;;;;;;;5033224;28;20212;-82
2024/01/25 00:45:24;;;;;;;20.63;4.33;;;;;;;;;;5040414;28;20221;-83
2024/01/25 00:47:50;;;;;;;18.53;4.20;;;;;;;;;;5022770;28;20784;-82
2024/01/25 00:50:19;;;;;;;16.70;4.30;;;;;;;;;;5040392;28;22505;-82
2024/01/25 00:52:45;;;;;;;22.40;4.67;;;;;;;;;;5076871;28;20205;-82
2024/01/25 00:55:12;;;;;;;16.00;4.10;;;;;;;;;;5045173;28;20205;-82
2024/01/25 00:57:38;;;;;;;15.47;3.83;;;;;;;;;;5050786;28;20189;-82
2024/01/25 01:00:04;;;;;;;21.80;4.40;;;;;;;;;;5068356;28;20221;-82
2024/01/25 01:02:34;;;;;;;18.43;4.10;;;;;;;;;;5048166;28;20193;-82
2024/01/25 01:05:00;;;;;;;15.47;3.93;;;;;;;;;;5052193;28;20374;-82
2024/01/25 01:07:27;;;;;;;20.03;4.03;;;;;;;;;;5055410;28;20189;-82
2024/01/25 01:09:53;;;;;;;18.40;4.13;;;;;;;;;;5070061;28;20173;-82
2024/01/25 01:12:19;;;;;;;15.90;3.87;;;;;;;;;;5051754;28;20184;-82
2024/01/25 01:14:45;;;;;;;18.53;4.20;;;;;;;;;;5049610;28;20240;-82
2024/01/25 01:17:11;;;;;;;18.87;4.00;;;;;;;;;;4976126;28;20259;-82
2024/01/25 01:19:37;;;;;;;16.73;4.03;;;;;;;;;;5054448;28;20184;-83
2024/01/25 01:22:04;;;;;;;15.07;4.23;;;;;;;;;;5055499;28;20181;-82
2024/01/25 01:24:30;;;;;;;17.53;4.30;;;;;;;;;;5054831;28;20213;-82
2024/01/25 01:26:56;;;;;;;21.87;4.33;;;;;;;;;;5077755;28;20189;-82
2024/01/25 01:29:22;;;;;;;17.77;4.30;;;;;;;;;;5063550;28;20620;-82
2024/01/25 01:31:48;;;;;;;20.77;5.20;;;;;;;;;;5047958;28;20551;-82
2024/01/25 01:34:14;;;;;;;19.70;5.27;;;;;;;;;;5015450;28;20216;-83
2024/01/25 01:36:41;;;;;;;19.20;4.73;;;;;;;;;;5054878;28;20210;-83
2024/01/25 01:39:07;;;;;;;17.33;4.77;;;;;;;;;;5054946;28;20228;-82
2024/01/25 01:41:33;;;;;;;17.23;4.47;;;;;;;;;;4976996;28;20181;-82
2024/01/25 01:44:00;;;;;;;20.97;4.60;;;;;;;;;;5042993;28;20181;-82
2024/01/25 01:46:36;;;;;;;18.77;4.10;;;;;;;;;;5041518;28;20204;-83
2024/01/25 01:49:04;;;;;;;13.33;3.80;;;;;;;;;;5073602;28;20189;-83
2024/01/25 01:51:31;;;;;;;17.27;4.00;;;;;;;;;;5059153;28;20185;-83
2024/01/25 01:53:57;;;;;;;15.83;3.97;;;;;;;;;;5060268;28;20249;-82
2024/01/25 01:56:24;;;;;;;20.73;4.67;;;;;;;;;;5044070;28;20264;-83
2024/01/25 01:58:52;;;;;;;18.03;3.87;;;;;;;;;;5079718;28;20178;-81
2024/01/25 02:01:18;;;;;;;16.67;3.57;;;;;;;;;;5070449;28;20197;-83
2024/01/25 02:03:45;;;;;;;16.70;4.40;;;;;;;;;;5043834;28;20581;-81
2024/01/25 02:06:11;;;;;;;16.03;4.17;;;;;;;;;;5044830;28;20205;-81
2024/01/25 02:08:37;;;;;;;20.13;4.50;;;;;;;;;;5061732;28;20197;-82
2024/01/25 02:11:03;;;;;;;18.50;4.20;;;;;;;;;;5061523;28;20173;-82
2024/01/25 02:13:29;;;;;;;19.70;4.53;;;;;;;;;;5039905;28;20196;-82
2024/01/25 02:15:56;;;;;;;16.70;4.53;;;;;;;;;;5056344;28;20200;-82
2024/01/25 02:18:22;;;;;;;11.70;4.00;;;;;;;;;;5039034;28;20194;-83
2024/01/25 02:20:48;;;;;;;13.83;4.10;;;;;;;;;;5035483;28;20641;-83
2024/01/25 02:23:14;;;;;;;15.17;4.10;;;;;;;;;;5059097;28;20199;-82
2024/01/25 02:25:41;;;;;;;17.57;5.20;;;;;;;;;;5057300;28;20235;-83
2024/01/25 02:28:07;;;;;;;21.30;4.80;;;;;;;;;;5076000;28;20196;-83
2024/01/25 02:30:33;;;;;;;19.97;4.77;;;;;;;;;;5057857;28;20187;-81
2024/01/25 02:32:59;;;;;;;13.43;4.33;;;;;;;;;;5057192;28;20690;-82
2024/01/25 02:35:25;;;;;;;17.80;4.50;;;;;;;;;;5041322;28;20204;-81
2024/01/25 02:37:51;;;;;;;20.47;4.70;;;;;;;;;;5048661;28;20200;-83
2024/01/25 02:40:18;;;;;;;15.93;4.67;;;;;;;;;;5045241;28;20677;-82
2024/01/25 02:42:44;;;;;;;18.03;4.60;;;;;;;;;;5057156;28;20218;-82
2024/01/25 02:45:10;;;;;;;14.60;3.73;;;;;;;;;;5068124;28;20231;-83
2024/01/25 02:47:36;;;;;;;14.70;3.90;;;;;;;;;;5061164;28;20189;-83
2024/01/25 02:50:02;;;;;;;14.47;3.80;;;;;;;;;;5042457;28;20633;-83
2024/01/25 02:52:29;;;;;;;16.53;3.97;;;;;;;;;;5058256;28;20196;-82
2024/01/25 02:54:55;;;;;;;14.87;3.90;;;;;;;;;;5040310;28;20696;-82
2024/01/25 02:57:21;;;;;;;15.70;3.87;;;;;;;;;;5039693;28;20182;-83
2024/01/25 02:59:47;;;;;;;19.20;4.13;;;;;;;;;;5068408;28;20212;-82
2024/01/25 03:02:13;;;;;;;14.90;4.30;;;;;;;;;;5063861;28;20327;-82
2024/01/25 03:04:40;;;;;;;16.70;4.13;;;;;;;;;;5052944;28;20225;-81
2024/01/25 03:07:06;;;;;;;12.60;3.57;;;;;;;;;;5046764;28;20197;-82
2024/01/25 03:09:32;;;;;;;15.77;3.90;;;;;;;;;;5053661;28;20185;-82
2024/01/25 03:11:58;;;;;;;16.60;4.20;;;;;;;;;;5033824;28;20178;-83
2024/01/25 03:14:25;;;;;;;14.00;3.97;;;;;;;;;;5046104;28;20196;-83
2024/01/25 03:16:51;;;;;;;19.43;4.17;;;;;;;;;;5050663;28;20297;-82
2024/01/25 03:19:17;;;;;;;16.90;3.93;;;;;;;;;;5050881;28;20213;-82
2024/01/25 03:21:43;;;;;;;16.13;3.73;;;;;;;;;;5035827;28;20173;-82
2024/01/25 03:24:09;;;;;;;12.73;4.00;;;;;;;;;;5052558;28;20201;-83
2024/01/25 03:26:35;;;;;;;17.43;3.90;;;;;;;;;;5042607;28;20201;-82
2024/01/25 03:29:02;;;;;;;16.93;3.60;;;;;;;;;;5076291;28;20182;-82
2024/01/25 03:31:28;;;;;;;15.03;3.87;;;;;;;;;;5038815;28;20234;-82
2024/01/25 03:33:54;;;;;;;15.03;3.67;;;;;;;;;;5041300;28;21018;-82
2024/01/25 03:36:21;;;;;;;14.20;3.07;;;;;;;;;;5067399;28;20199;-81
2024/01/25 03:38:47;;;;;;;20.20;4.33;;;;;;;;;;5062614;28;21671;-83
2024/01/25 03:41:13;;;;;;;14.47;3.40;;;;;;;;;;4953493;28;20177;-83
2024/01/25 03:43:39;;;;;;;11.73;3.47;;;;;;;;;;5076310;28;20601;-83
2024/01/25 03:46:05;;;;;;;15.77;4.10;;;;;;;;;;5076202;28;20817;-83
2024/01/25 03:48:32;;;;;;;16.50;3.73;;;;;;;;;;5040966;28;20194;-83
2024/01/25 03:50:58;;;;;;;17.30;3.87;;;;;;;;;;5077153;28;20185;-82
2024/01/25 03:53:24;;;;;;;19.33;4.37;;;;;;;;;;5075834;28;20177;-83
2024/01/25 03:55:50;;;;;;;14.30;4.17;;;;;;;;;;5074921;28;20200;-82
2024/01/25 03:58:19;;;;;;;16.23;4.07;;;;;;;;;;5045844;28;20587;-83
2024/01/25 04:00:46;;;;;;;15.37;4.23;;;;;;;;;;5037283;28;20189;-82
2024/01/25 04:03:12;;;;;;;15.60;4.00;;;;;;;;;;5041525;28;20305;-82
2024/01/25 04:05:41;;;;;;;14.17;3.63;;;;;;;;;;5067873;28;20264;-82
2024/01/25 04:08:08;;;;;;;18.07;4.53;;;;;;;;;;5064460;28;20245;-82
2024/01/25 04:10:34;;;;;;;17.67;4.07;;;;;;;;;;5036749;28;20194;-82
2024/01/25 04:13:01;;;;;;;13.17;4.07;;;;;;;;;;5053133;28;20615;-80
2024/01/25 04:15:27;;;;;;;16.33;4.47;;;;;;;;;;5058602;28;20204;-80
2024/01/25 04:17:55;;;;;;;22.17;9.20;;;;;;;;;;5072849;28;20225;-80
2024/01/25 04:20:22;;;;;;;18.40;6.20;;;;;;;;;;5071955;28;20250;-81
2024/01/25 04:22:48;;;;;;;15.57;4.83;;;;;;;;;;5071748;28;20649;-82
2024/01/25 04:25:15;;;;;;;13.87;4.20;;;;;;;;;;5072155;28;20354;-81
2024/01/25 04:27:41;;;;;;;13.00;3.77;;;;;;;;;;5071988;28;20266;-82
2024/01/25 04:30:08;;;;;;;15.43;4.17;;;;;;;;;;5053924;28;20556;-80
2024/01/25 04:32:35;;;;;;;17.40;4.53;;;;;;;;;;5054590;28;20181;-82
2024/01/25 04:35:01;;;;;;;12.97;4.10;;;;;;;;;;5072087;28;20592;-80
2024/01/25 04:37:27;;;;;;;15.07;4.00;;;;;;;;;;5035844;28;20193;-80
2024/01/25 04:39:53;;;;;;;13.67;4.00;;;;;;;;;;5050961;28;20282;-80
2024/01/25 04:42:20;;;;;;;16.70;4.00;;;;;;;;;;5068500;28;20235;-81
2024/01/25 04:44:46;;;;;;;17.23;4.93;;;;;;;;;;5057785;28;20271;-80
2024/01/25 04:47:12;;;;;;;16.00;4.67;;;;;;;;;;5070332;28;20178;-81
2024/01/25 04:49:38;;;;;;;19.20;4.10;;;;;;;;;;5070398;28;20181;-80
2024/01/25 04:52:04;;;;;;;12.63;4.03;;;;;;;;;;5051216;28;20185;-80
2024/01/25 04:54:30;;;;;;;13.30;4.10;;;;;;;;;;5083746;28;20787;-82
2024/01/25 04:56:56;;;;;;;15.70;4.20;;;;;;;;;;5070030;28;20189;-80
2024/01/25 04:59:23;;;;;;;12.73;4.13;;;;;;;;;;5067029;28;20197;-82
2024/01/25 05:01:51;;;;;;;14.27;4.00;;;;;;;;;;5068009;28;20500;-81
2024/01/25 05:04:17;;;;;;;12.80;3.70;;;;;;;;;;5052036;28;20346;-80
2024/01/25 05:06:43;;;;;;;11.70;3.90;;;;;;;;;;5036843;28;20592;-80
2024/01/25 05:09:10;;;;;;;15.65;4.82;;;;;;;;;;5059093;28;20552;-81
2024/01/25 05:11:39;;;;;;;14.27;3.97;;;;;;;;;;5049728;28;20189;-80
2024/01/25 05:14:06;;;;;;;14.20;3.50;;;;;;;;;;5050583;28;20185;-80
2024/01/25 05:16:32;;;;;;;14.33;3.83;;;;;;;;;;5052776;28;20208;-80
2024/01/25 05:18:58;;;;;;;16.63;3.80;;;;;;;;;;5051877;28;20362;-80
2024/01/25 05:21:25;;;;;;;14.43;3.97;;;;;;;;;;5067819;28;20264;-80
2024/01/25 05:23:51;;;;;;;17.80;3.60;;;;;;;;;;5048845;28;20177;-80
2024/01/25 05:26:17;;;;;;;11.33;3.60;;;;;;;;;;5053275;28;20213;-81
2024/01/25 05:28:43;;;;;;;16.23;3.67;;;;;;;;;;5033949;28;20185;-81
2024/01/25 05:31:12;;;;;;;14.53;3.47;;;;;;;;;;5073983;28;20185;-84
2024/01/25 05:33:42;;;;;;;19.77;4.30;;;;;;;;;;5048884;28;20186;-82
2024/01/25 05:36:08;;;;;;;14.87;3.50;;;;;;;;;;5070334;28;20256;-80
2024/01/25 05:38:34;;;;;;;13.50;3.70;;;;;;;;;;5069360;28;20200;-80
2024/01/25 05:41:01;;;;;;;11.73;3.10;;;;;;;;;;5035758;28;20678;-80
2024/01/25 05:43:27;;;;;;;14.40;3.57;;;;;;;;;;5052555;28;20193;-80
2024/01/25 05:45:53;;;;;;;12.70;3.60;;;;;;;;;;5066961;28;20685;-81
2024/01/25 05:48:19;;;;;;;14.70;3.57;;;;;;;;;;5068468;28;20181;-81
2024/01/25 05:50:45;;;;;;;15.40;3.47;;;;;;;;;;5035689;28;20181;-80
2024/01/25 05:53:11;;;;;;;16.50;3.53;;;;;;;;;;5069794;28;20280;-80
2024/01/25 05:55:38;;;;;;;11.40;3.20;;;;;;;;;;5036924;28;20241;-81
2024/01/25 05:58:04;;;;;;;13.93;3.90;;;;;;;;;;5068542;28;20227;-81
2024/01/25 06:00:30;;;;;;;14.80;3.83;;;;;;;;;;5032559;28;20273;-81
2024/01/25 06:02:56;;;;;;;13.40;3.70;;;;;;;;;;5048468;28;20205;-82
2024/01/25 06:05:22;;;;;;;19.67;4.70;;;;;;;;;;5068607;28;20213;-81
2024/01/25 06:07:50;;;;;;;15.13;4.53;;;;;;;;;;5051304;28;20678;-80
2024/01/25 06:10:16;;;;;;;16.50;4.87;;;;;;;;;;5069067;28;20220;-80
2024/01/25 06:12:42;;;;;;;17.40;5.30;;;;;;;;;;5049312;28;20189;-80
2024/01/25 06:15:09;;;;;;;14.33;4.43;;;;;;;;;;5067403;28;20201;-80
2024/01/25 06:17:35;;;;;;;17.30;4.80;;;;;;;;;;5053870;28;20660;-79
2024/01/25 06:20:02;;;;;;;15.73;4.47;;;;;;;;;;5055492;28;20296;-81
2024/01/25 06:22:28;;;;;;;15.50;4.57;;;;;;;;;;5070287;28;20269;-77
2024/01/25 06:24:54;;;;;;;14.37;4.17;;;;;;;;;;5060535;28;20209;-82
2024/01/25 06:27:21;;;;;;;17.70;4.90;;;;;;;;;;5051629;28;20344;-77
2024/01/25 06:29:47;;;;;;;15.10;4.93;;;;;;;;;;5062459;28;20191;-75
2024/01/25 06:32:13;;;;;;;18.97;4.40;;;;;;;;;;5048037;28;20181;-75
2024/01/25 06:34:39;;;;;;;17.20;4.63;;;;;;;;;;5067010;28;20193;-76
2024/01/25 06:37:06;;;;;;;19.70;5.40;;;;;;;;;;5049913;28;20189;-77
2024/01/25 06:39:32;;;;;;;15.10;4.70;;;;;;;;;;5066997;28;20189;-78
2024/01/25 06:41:58;;;;;;;13.00;4.40;;;;;;;;;;5050479;28;20189;-77
2024/01/25 06:44:24;;;;;;;21.97;5.30;;;;;;;;;;5069299;28;20231;-80
2024/01/25 06:46:50;;;;;;;19.20;5.80;;;;;;;;;;5069194;28;20426;-81
2024/01/25 06:49:16;;;;;;;17.80;5.67;;;;;;;;;;5074730;28;20204;-81
2024/01/25 06:51:43;;;;;;;19.37;6.50;;;;;;;;;;5042890;28;20185;-81
2024/01/25 06:54:09;;;;;;;19.80;7.03;;;;;;;;;;5051696;28;20204;-78
2024/01/25 06:56:36;;;;;;;21.63;7.13;;;;;;;;;;5067720;28;20209;-81
2024/01/25 06:59:02;;;;;;;19.90;7.00;;;;;;;;;;5080123;28;20185;-83
2024/01/25 07:01:30;;;;;;;15.27;6.93;;;;;;;;;;5046076;28;20213;-82
2024/01/25 07:03:56;;;;;;;29.03;7.40;;;;;;;;;;5077775;28;20224;-80
2024/01/25 07:06:22;;;;;;;20.10;7.30;;;;;;;;;;5053592;28;20205;-83
2024/01/25 07:08:49;;;;;;;25.73;7.27;;;;;;;;;;5059573;28;20185;-84
2024/01/25 07:11:16;;;;;;;20.10;6.80;;;;;;;;;;5059034;28;20577;-84
2024/01/25 07:13:43;;;;;;;22.43;7.20;;;;;;;;;;5058638;28;20217;-84
2024/01/25 07:16:09;;;;;;;17.57;6.07;;;;;;;;;;5058190;28;20228;-84
2024/01/25 07:18:35;;;;;;;19.13;6.10;;;;;;;;;;5058476;28;20205;-83
2024/01/25 07:21:02;;;;;;;17.63;6.33;;;;;;;;;;5041817;28;20189;-85
2024/01/25 07:23:30;;;;;;;23.50;6.60;;;;;;;;;;5046130;28;20877;-84
2024/01/25 07:25:56;;;;;;;17.53;5.47;;;;;;;;;;5056647;28;20251;-84
2024/01/25 07:28:22;;;;;;;22.30;5.70;;;;;;;;;;5090432;28;20188;-84
2024/01/25 07:30:49;;;;;;;19.37;5.33;;;;;;;;;;5048027;28;20186;-84
2024/01/25 07:33:15;;;;;;;14.53;5.30;;;;;;;;;;5050466;28;20207;-84
2024/01/25 07:35:45;;;;;;;16.97;4.83;;;;;;;;;;5080726;28;20319;-84
2024/01/25 07:38:18;;;;;;;21.97;5.17;;;;;;;;;;5076652;28;20253;-83
2024/01/25 07:40:44;;;;;;;21.77;5.50;;;;;;;;;;5058092;28;20184;-84
2024/01/25 07:43:10;;;;;;;20.00;5.23;;;;;;;;;;5086693;28;20676;-84
2024/01/25 07:45:37;;;;;;;23.37;5.57;;;;;;;;;;5079539;28;20228;-84
2024/01/25 07:48:04;;;;;;;18.27;5.23;;;;;;;;;;5062814;28;20181;-80
2024/01/25 07:50:30;;;;;;;20.67;5.00;;;;;;;;;;5078552;28;20217;-81
2024/01/25 07:52:56;;;;;;;19.93;5.83;;;;;;;;;;5051923;28;20184;-82
2024/01/25 07:55:22;;;;;;;20.60;6.20;;;;;;;;;;5070848;28;20655;-79
2024/01/25 07:57:48;;;;;;;21.53;6.00;;;;;;;;;;5059537;28;20260;-79
2024/01/25 08:00:15;;;;;;;23.47;6.57;;;;;;;;;;5086056;28;20211;-80
2024/01/25 08:02:42;;;;;;;21.90;5.90;;;;;;;;;;5078354;28;20260;-80
2024/01/25 08:05:08;;;;;;;22.47;6.63;;;;;;;;;;5048710;28;20558;-80
2024/01/25 08:07:37;;;;;;;22.53;6.43;;;;;;;;;;5093489;28;20176;-81
2024/01/25 08:10:04;;;;;;;17.50;5.23;;;;;;;;;;5077614;28;20245;-82
2024/01/25 08:12:30;;;;;;;15.73;5.50;;;;;;;;;;5077593;28;20176;-81
2024/01/25 08:14:56;;;;;;;18.20;5.67;;;;;;;;;;5062997;28;20208;-81
2024/01/25 08:17:22;;;;;;;18.57;5.57;;;;;;;;;;5056691;28;20188;-81
2024/01/25 08:19:48;;;;;;;23.53;6.37;;;;;;;;;;5075993;28;20192;-82
2024/01/25 08:22:15;;;;;;;21.03;5.83;;;;;;;;;;5061577;28;20180;-82
2024/01/25 08:24:41;;;;;;;19.40;5.63;;;;;;;;;;5077409;28;20684;-81
2024/01/25 08:27:07;;;;;;;18.97;5.93;;;;;;;;;;5070256;28;20192;-81
2024/01/25 08:29:33;;;;;;;20.27;6.00;;;;;;;;;;5059772;28;20183;-81
2024/01/25 08:31:59;;;;;;;20.77;6.17;;;;;;;;;;5047406;28;20178;-81
2024/01/25 08:34:26;;;;;;;21.50;6.27;;;;;;;;;;5065161;28;20271;-81
2024/01/25 08:36:52;;;;;;;23.80;8.90;;;;;;;;;;5066195;28;20189;-82
2024/01/25 08:39:18;;;;;;;34.63;15.17;;;;;;;;;;5054116;28;20552;-82
2024/01/25 08:41:45;;;;;;;28.17;11.23;;;;;;;;;;5057442;28;20212;-82
2024/01/25 08:44:11;;;;;;;35.10;17.57;;;;;;;;;;5072492;28;20552;-82
2024/01/25 08:46:38;;;;;;;29.50;12.50;;;;;;;;;;5049655;28;20222;-81
2024/01/25 08:49:08;;;;;;;23.67;10.83;;;;;;;;;;5064495;28;20181;-85
2024/01/25 08:51:34;;;;;;;29.00;10.43;;;;;;;;;;5078232;28;20181;-81
2024/01/25 08:54:00;;;;;;;28.77;10.50;;;;;;;;;;5049179;28;20281;-81
2024/01/25 08:56:27;;;;;;;25.30;10.20;;;;;;;;;;5068091;28;20205;-81
2024/01/25 08:58:53;;;;;;;29.30;10.70;;;;;;;;;;5048121;28;20185;-82
2024/01/25 09:01:19;;;;;;;23.57;8.03;;;;;;;;;;5054636;28;20209;-81
2024/01/25 09:03:46;;;;;;;18.87;7.03;;;;;;;;;;5076769;28;20192;-81
2024/01/25 09:06:12;;;;;;;19.50;6.10;;;;;;;;;;5052987;28;20213;-82
2024/01/25 09:08:38;;;;;;;25.73;6.00;;;;;;;;;;5054529;28;20255;-81
2024/01/25 09:11:05;;;;;;;20.53;6.57;;;;;;;;;;5068266;28;20548;-81
2024/01/25 09:13:32;;;;;;;19.53;6.00;;;;;;;;;;5041129;28;20176;-82
2024/01/25 09:15:58;;;;;;;19.27;5.80;;;;;;;;;;5055920;28;20197;-80
2024/01/25 09:18:25;;;;;;;17.80;5.43;;;;;;;;;;5050269;28;20177;-79
2024/01/25 09:20:51;;;;;;;22.07;5.73;;;;;;;;;;5049126;28;20181;-79
2024/01/25 09:23:17;;;;;;;19.23;5.57;;;;;;;;;;5070625;28;20380;-79
2024/01/25 09:25:46;;;;;;;19.00;4.63;;;;;;;;;;5047379;28;20223;-79
2024/01/25 09:28:13;;;;;;;25.03;5.13;;;;;;;;;;5070751;28;20177;-79
2024/01/25 09:30:39;;;;;;;22.20;5.73;;;;;;;;;;5073335;28;20207;-79
2024/01/25 09:33:06;;;;;;;19.13;5.60;;;;;;;;;;5076844;28;20189;-79
2024/01/25 09:35:32;;;;;;;22.80;5.20;;;;;;;;;;5056912;28;20216;-81
2024/01/25 09:37:58;;;;;;;25.03;6.17;;;;;;;;;;5066212;28;20197;-81
2024/01/25 09:40:25;;;;;;;24.20;6.07;;;;;;;;;;5085236;28;20314;-81
2024/01/25 09:42:52;;;;;;;25.97;6.37;;;;;;;;;;5077064;28;20184;-81
2024/01/25 09:45:19;;;;;;;26.47;5.80;;;;;;;;;;5056915;28;20288;-79
2024/01/25 09:47:45;;;;;;;25.33;6.40;;;;;;;;;;5058114;28;20604;-79
2024/01/25 09:50:12;;;;;;;18.40;5.63;;;;;;;;;;5080376;28;20180;-79
2024/01/25 09:52:47;;;;;;;25.43;6.00;;;;;;;;;;5069437;28;20598;-79
2024/01/25 09:55:14;;;;;;;22.67;5.60;;;;;;;;;;5069738;28;21864;-79
2024/01/25 09:57:41;;;;;;;21.73;5.63;;;;;;;;;;5049800;28;20610;-79
2024/01/25 10:00:11;;;;;;;18.13;5.63;;;;;;;;;;5053072;28;20276;-79
2024/01/25 10:02:38;;;;;;;24.03;5.10;;;;;;;;;;5055926;28;20193;-79
2024/01/25 10:05:04;;;;;;;22.90;5.33;;;;;;;;;;5071117;28;20271;-79
2024/01/25 10:07:38;;;;;;;24.83;5.63;;;;;;;;;;5066132;28;20660;-79
2024/01/25 10:10:05;;;;;;;25.23;5.83;;;;;;;;;;5066640;28;20267;-81
2024/01/25 10:12:32;;;;;;;21.83;5.17;;;;;;;;;;5058844;28;20185;-79
2024/01/25 10:14:59;;;;;;;22.63;5.43;;;;;;;;;;5033994;28;20313;-80
2024/01/25 10:17:25;;;;;;;19.80;5.23;;;;;;;;;;5065874;28;20181;-80
2024/01/25 10:19:51;;;;;;;21.30;4.80;;;;;;;;;;5072820;28;20218;-79
2024/01/25 10:22:17;;;;;;;23.30;5.50;;;;;;;;;;5068250;28;20232;-80
2024/01/25 10:24:43;;;;;;;23.10;5.10;;;;;;;;;;5052122;28;20193;-79
2024/01/25 10:27:10;;;;;;;18.83;4.43;;;;;;;;;;5067764;28;20184;-79
2024/01/25 10:29:36;;;;;;;19.63;4.47;;;;;;;;;;5070636;28;20181;-79
2024/01/25 10:32:03;;;;;;;24.50;4.60;;;;;;;;;;5064357;28;20192;-80
2024/01/25 10:34:29;;;;;;;23.90;5.00;;;;;;;;;;5073137;28;20184;-80
2024/01/25 10:36:56;;;;;;;25.20;5.07;;;;;;;;;;5073597;28;20632;-78
2024/01/25 10:39:22;;;;;;;20.53;4.83;;;;;;;;;;5075496;28;20230;-79
2024/01/25 10:41:50;;;;;;;23.67;4.97;;;;;;;;;;5068272;28;20678;-78
2024/01/25 10:44:19;;;;;;;21.17;5.10;;;;;;;;;;5070492;28;20196;-78
2024/01/25 10:46:47;;;;;;;25.43;5.30;;;;;;;;;;5070579;28;20284;-79
2024/01/25 10:49:14;;;;;;;26.70;4.93;;;;;;;;;;5070274;28;20185;-79
2024/01/25 10:51:43;;;;;;;22.90;5.13;;;;;;;;;;5070679;28;20181;-79
2024/01/25 10:54:09;;;;;;;19.23;4.80;;;;;;;;;;5066032;28;20186;-78
2024/01/25 10:56:36;;;;;;;17.47;3.97;;;;;;;;;;5074173;28;20197;-79
2024/01/25 10:59:03;;;;;;;21.80;5.10;;;;;;;;;;5053887;28;20185;-79
2024/01/25 11:01:29;;;;;;;26.20;5.10;;;;;;;;;;5075972;28;20177;-79
2024/01/25 11:03:56;;;;;;;19.87;4.33;;;;;;;;;;5075619;28;20218;-79
2024/01/25 11:06:23;;;;;;;20.00;4.83;;;;;;;;;;5069960;28;20216;-79
2024/01/25 11:08:49;;;;;;;19.53;4.47;;;;;;;;;;5070544;28;20224;-79
2024/01/25 11:11:16;;;;;;;24.33;4.50;;;;;;;;;;5069913;28;20644;-79
2024/01/25 11:13:43;;;;;;;20.03;4.50;;;;;;;;;;5071181;28;20189;-79
2024/01/25 11:16:16;;;;;;;19.43;4.30;;;;;;;;;;5068551;28;20201;-79
2024/01/25 11:18:52;;;;;;;18.20;4.97;;;;;;;;;;5072642;28;20197;-79
2024/01/25 11:21:37;;;;;;;21.83;4.90;;;;;;;;;;5071887;28;20189;-78
2024/01/25 11:24:04;;;;;;;20.63;4.93;;;;;;;;;;5052505;28;20185;-78
2024/01/25 11:26:32;;;;;;;17.23;4.03;;;;;;;;;;5079349;28;20614;-79
2024/01/25 11:29:00;;;;;;;17.13;4.30;;;;;;;;;;4972447;28;20185;-78
2024/01/25 11:31:27;;;;;;;19.63;4.87;;;;;;;;;;5068133;28;20184;-78
2024/01/25 11:33:57;;;;;;;14.83;3.60;;;;;;;;;;5069652;28;20177;-78
2024/01/25 11:36:23;;;;;;;19.73;4.50;;;;;;;;;;5075389;28;20308;-78
2024/01/25 11:38:49;;;;;;;18.53;4.10;;;;;;;;;;5072185;28;20199;-78
2024/01/25 11:41:16;;;;;;;17.97;4.43;;;;;;;;;;4954927;28;20173;-77
2024/01/25 11:43:42;;;;;;;21.47;5.03;;;;;;;;;;5069202;28;20227;-77
2024/01/25 11:46:08;;;;;;;20.47;4.57;;;;;;;;;;5053820;28;20233;-78
2024/01/25 11:48:38;;;;;;;17.53;4.30;;;;;;;;;;4978776;28;20679;-77
2024/01/25 11:51:05;;;;;;;18.70;4.57;;;;;;;;;;5069894;28;20216;-77
2024/01/25 11:53:31;;;;;;;19.67;4.37;;;;;;;;;;5067613;28;20177;-79
2024/01/25 11:55:57;;;;;;;18.20;3.93;;;;;;;;;;4972334;28;20228;-76
2024/01/25 11:58:24;;;;;;;16.00;4.10;;;;;;;;;;5065265;28;20643;-75
2024/01/25 12:00:50;;;;;;;17.53;4.07;;;;;;;;;;4992847;28;21062;-79
2024/01/25 12:03:17;;;;;;;18.73;3.97;;;;;;;;;;4950721;28;20204;-78
2024/01/25 12:05:43;;;;;;;17.87;4.17;;;;;;;;;;5067089;28;20209;-77
2024/01/25 12:08:13;;;;;;;19.10;4.47;;;;;;;;;;4952306;28;20189;-79
2024/01/25 12:10:39;;;;;;;15.17;3.97;;;;;;;;;;4954758;28;20240;-79
2024/01/25 12:13:09;;;;;;;15.27;3.73;;;;;;;;;;4957458;28;20201;-78
2024/01/25 12:15:36;;;;;;;12.57;4.03;;;;;;;;;;4973748;28;20221;-77
2024/01/25 12:18:02;;;;;;;15.40;4.10;;;;;;;;;;5077277;28;20213;-76
2024/01/25 12:20:29;;;;;;;14.23;3.43;;;;;;;;;;5070527;28;20189;-78
2024/01/25 12:22:55;;;;;;;12.53;4.10;;;;;;;;;;4906992;28;20258;-77
2024/01/25 12:25:21;;;;;;;17.67;4.47;;;;;;;;;;5006333;28;20306;-78
2024/01/25 12:27:50;;;;;;;17.13;4.43;;;;;;;;;;4967352;28;20173;-78
2024/01/25 12:30:16;;;;;;;18.20;4.07;;;;;;;;;;4961179;28;20181;-77
2024/01/25 12:32:42;;;;;;;15.50;4.00;;;;;;;;;;5068711;28;20680;-77
2024/01/25 12:35:08;;;;;;;14.50;3.80;;;;;;;;;;4958470;28;20644;-77
2024/01/25 12:37:35;;;;;;;17.13;3.80;;;;;;;;;;4941826;28;20180;-79
2024/01/25 12:40:02;;;;;;;14.00;3.90;;;;;;;;;;5072209;28;20197;-77
2024/01/25 12:42:28;;;;;;;15.17;4.40;;;;;;;;;;4954519;28;21411;-77
2024/01/25 12:44:54;;;;;;;17.43;4.10;;;;;;;;;;5063896;28;20238;-75
2024/01/25 12:47:21;;;;;;;16.57;4.33;;;;;;;;;;4955704;28;21103;-77
2024/01/25 12:49:47;;;;;;;16.73;4.53;;;;;;;;;;4976599;28;20637;-77
2024/01/25 12:52:13;;;;;;;16.57;4.40;;;;;;;;;;4951290;28;20668;-77
2024/01/25 12:54:40;;;;;;;19.10;4.73;;;;;;;;;;5079594;28;20193;-79
2024/01/25 12:57:07;;;;;;;18.97;4.80;;;;;;;;;;5067513;28;20177;-77
2024/01/25 12:59:34;;;;;;;18.03;4.27;;;;;;;;;;5053162;28;20189;-77
2024/01/25 13:02:00;;;;;;;17.50;4.87;;;;;;;;;;4962334;28;20187;-77
2024/01/25 13:04:26;;;;;;;15.77;4.80;;;;;;;;;;4975916;28;20184;-80
2024/01/25 13:06:56;;;;;;;17.93;4.63;;;;;;;;;;4937568;28;20281;-80
2024/01/25 13:09:25;;;;;;;19.47;4.73;;;;;;;;;;5068040;28;20527;-80
2024/01/25 13:11:52;;;;;;;17.63;5.10;;;;;;;;;;5076623;28;20177;-80
2024/01/25 13:14:18;;;;;;;18.63;4.63;;;;;;;;;;4955046;28;20621;-79
2024/01/25 13:16:44;;;;;;;14.47;4.30;;;;;;;;;;5077633;28;20212;-79
2024/01/25 13:19:11;;;;;;;20.57;4.43;;;;;;;;;;5030259;28;20173;-80
2024/01/25 13:21:39;;;;;;;15.67;4.20;;;;;;;;;;5067702;28;20185;-80
2024/01/25 13:24:06;;;;;;;13.87;4.03;;;;;;;;;;5023771;28;20272;-80
2024/01/25 13:26:35;;;;;;;14.93;4.00;;;;;;;;;;5008764;28;20240;-80
2024/01/25 13:29:01;;;;;;;15.03;4.07;;;;;;;;;;4899741;28;20180;-80
2024/01/25 13:31:27;;;;;;;18.43;4.50;;;;;;;;;;4950515;28;20188;-80
2024/01/25 13:33:53;;;;;;;16.77;4.60;;;;;;;;;;4981294;28;20181;-80
2024/01/25 13:36:19;;;;;;;13.37;3.63;;;;;;;;;;4958422;28;20600;-80
2024/01/25 13:38:45;;;;;;;13.70;3.87;;;;;;;;;;5054818;28;20815;-80
2024/01/25 13:41:11;;;;;;;14.17;4.43;;;;;;;;;;4971862;28;20250;-80
2024/01/25 13:43:38;;;;;;;15.90;3.70;;;;;;;;;;4939683;28;20195;-79
2024/01/25 13:46:04;;;;;;;17.57;4.07;;;;;;;;;;4954277;28;20225;-80
2024/01/25 13:48:30;;;;;;;16.90;3.70;;;;;;;;;;4974223;28;21076;-80
2024/01/25 13:50:56;;;;;;;15.40;4.17;;;;;;;;;;5053046;28;20204;-80
2024/01/25 13:53:22;;;;;;;16.53;4.10;;;;;;;;;;4941785;28;20547;-81
2024/01/25 13:55:48;;;;;;;16.00;4.17;;;;;;;;;;5057639;28;20210;-81
2024/01/25 13:58:14;;;;;;;11.87;3.60;;;;;;;;;;4986683;28;20633;-80
2024/01/25 14:00:40;;;;;;;14.80;4.13;;;;;;;;;;5050974;28;20181;-81
2024/01/25 14:03:07;;;;;;;14.83;4.23;;;;;;;;;;5032449;28;20279;-80
2024/01/25 14:05:34;;;;;;;18.37;4.07;;;;;;;;;;4979123;28;20305;-81
2024/01/25 14:08:00;;;;;;;15.43;4.30;;;;;;;;;;4926594;28;20198;-79
2024/01/25 14:10:27;;;;;;;14.13;3.60;;;;;;;;;;4951604;28;20650;-79
2024/01/25 14:12:54;;;;;;;15.03;4.27;;;;;;;;;;4980327;28;20186;-80
2024/01/25 14:15:20;;;;;;;14.27;4.30;;;;;;;;;;4932333;28;20215;-79
2024/01/25 14:17:46;;;;;;;15.93;3.80;;;;;;;;;;5072888;28;20182;-79
2024/01/25 14:20:13;;;;;;;16.37;4.20;;;;;;;;;;4936960;28;20192;-81
2024/01/25 14:22:39;;;;;;;14.93;3.80;;;;;;;;;;4923671;28;20188;-80
2024/01/25 14:25:05;;;;;;;20.20;4.50;;;;;;;;;;4911299;28;20681;-80